sensor_id;sensor_type;location;lat;lon;timestamp;temperature;humidity
7411;DHT22;3747;48.628;9.058;2024-03-22T00:00:12;7.50;99.90
7411;DHT22;3747;48.628;9.058;2024-03-22T00:02:39;7.50;99.90
7411;DHT22;3747;48.628;9.058;2024-03-22T00:05:05;7.40;99.90
7411;DHT22;3747;48.628;9.058;2024-03-22T00:07:33;7.30;99.90
7411;DHT22;3747;48.628;9.058;2024-03-22T00:09:59;7.20;99.90
7411;DHT22;3747;48.628;9.058;2024-03-22T00:12:25;7.20;99.90
7411;DHT22;3747;48.628;9.058;2024-03-22T00:14:52;7.20;99.90
7411;DHT22;3747;48.628;9.058;2024-03-22T00:17:20;7.20;99.90
7411;DHT22;3747;48.628;9.058;2024-03-22T00:19:45;7.10;99.90
7411;DHT22;3747;48.628;9.058;2024-03-22T00:22:12;7.20;99.90
7411;DHT22;3747;48.628;9.058;2024-03-22T00:24:39;7.20;99.90
7411;DHT22;3747;48.628;9.058;2024-03-22T00:27:06;7.30;99.90
7411;DHT22;3747;48.628;9.058;2024-03-22T00:29:32;7.30;99.90
7411;DHT22;3747;48.628;9.058;2024-03-22T00:31:58;7.30;99.90
7411;DHT22;3747;48.628;9.058;2024-03-22T00:34:25;7.10;99.90
7411;DHT22;3747;48.628;9.058;2024-03-22T00:36:51;7.00;99.90
7411;DHT22;3747;48.628;9.058;2024-03-22T00:39:17;7.00;99.90
7411;DHT22;3747;48.628;9.058;2024-03-22T00:41:45;7.00;99.90
7411;DHT22;3747;48.628;9.058;2024-03-22T00:44:11;7.00;99.90
7411;DHT22;3747;48.628;9.058;2024-03-22T00:46:37;7.00;99.90
7411;DHT22;3747;48.628;9.058;2024-03-22T00:49:03;6.90;99.90
7411;DHT22;3747;48.628;9.058;2024-03-22T00:51:30;7.00;99.90
7411;DHT22;3747;48.628;9.058;2024-03-22T00:53:55;7.10;99.90
7411;DHT22;3747;48.628;9.058;2024-03-22T00:56:22;7.00;99.90
7411;DHT22;3747;48.628;9.058;2024-03-22T00:58:49;7.00;99.90
7411;DHT22;3747;48.628;9.058;2024-03-22T01:01:16;7.00;99.90
7411;DHT22;3747;48.628;9.058;2024-03-22T01:03:41;6.80;99.90
7411;DHT22;3747;48.628;9.058;2024-03-22T01:06:08;6.80;99.90
7411;DHT22;3747;48.628;9.058;2024-03-22T01:08:34;6.80;99.90
7411;DHT22;3747;48.628;9.058;2024-03-22T01:11:00;6.80;99.90
7411;DHT22;3747;48.628;9.058;2024-03-22T01:13:26;6.70;99.90
7411;DHT22;3747;48.628;9.058;2024-03-22T01:15:55;6.60;99.90
7411;DHT22;3747;48.628;9.058;2024-03-22T01:18:20;6.50;99.90
7411;DHT22;3747;48.628;9.058;2024-03-22T01:20:47;6.40;99.90
7411;DHT22;3747;48.628;9.058;2024-03-22T01:23:13;6.20;99.90
7411;DHT22;3747;48.628;9.058;2024-03-22T01:25:39;6.10;99.90
7411;DHT22;3747;48.628;9.058;2024-03-22T01:28:05;6.00;99.90
7411;DHT22;3747;48.628;9.058;2024-03-22T01:30:32;6.10;99.90
7411;DHT22;3747;48.628;9.058;2024-03-22T01:36:22;6.30;99.90
7411;DHT22;3747;48.628;9.058;2024-03-22T01:38:49;6.10;99.90
7411;DHT22;3747;48.628;9.058;2024-03-22T01:41:14;5.90;99.90
7411;DHT22;3747;48.628;9.058;2024-03-22T01:43:41;5.70;99.90
7411;DHT22;3747;48.628;9.058;2024-03-22T01:46:08;5.60;99.90
7411;DHT22;3747;48.628;9.058;2024-03-22T01:48:34;5.60;99.90
7411;DHT22;3747;48.628;9.058;2024-03-22T01:51:01;5.50;99.90
7411;DHT22;3747;48.628;9.058;2024-03-22T01:53:28;5.60;99.90
7411;DHT22;3747;48.628;9.058;2024-03-22T01:55:55;5.50;99.90
7411;DHT22;3747;48.628;9.058;2024-03-22T01:58:21;5.30;99.90
7411;DHT22;3747;48.628;9.058;2024-03-22T02:00:48;5.20;99.90
7411;DHT22;3747;48.628;9.058;2024-03-22T02:03:14;5.00;99.90
7411;DHT22;3747;48.628;9.058;2024-03-22T02:05:41;5.00;99.90
7411;DHT22;3747;48.628;9.058;2024-03-22T02:08:06;5.00;99.90
7411;DHT22;3747;48.628;9.058;2024-03-22T02:10:35;5.10;99.90
7411;DHT22;3747;48.628;9.058;2024-03-22T02:13:01;5.20;99.90
7411;DHT22;3747;48.628;9.058;2024-03-22T02:15:27;5.10;99.90
7411;DHT22;3747;48.628;9.058;2024-03-22T02:17:53;4.90;99.90
7411;DHT22;3747;48.628;9.058;2024-03-22T02:20:20;4.70;99.90
7411;DHT22;3747;48.628;9.058;2024-03-22T02:22:45;4.50;99.90
7411;DHT22;3747;48.628;9.058;2024-03-22T02:25:14;4.40;99.90
7411;DHT22;3747;48.628;9.058;2024-03-22T02:27:39;4.40;99.90
7411;DHT22;3747;48.628;9.058;2024-03-22T02:30:07;4.30;99.90
7411;DHT22;3747;48.628;9.058;2024-03-22T02:32:33;4.20;99.90
7411;DHT22;3747;48.628;9.058;2024-03-22T02:35:00;4.20;99.90
7411;DHT22;3747;48.628;9.058;2024-03-22T02:37:25;4.10;99.90
7411;DHT22;3747;48.628;9.058;2024-03-22T02:39:53;4.00;99.90
7411;DHT22;3747;48.628;9.058;2024-03-22T02:42:20;3.90;99.90
7411;DHT22;3747;48.628;9.058;2024-03-22T02:44:47;4.00;99.90
7411;DHT22;3747;48.628;9.058;2024-03-22T02:47:13;4.10;99.90
7411;DHT22;3747;48.628;9.058;2024-03-22T02:49:41;4.30;99.90
7411;DHT22;3747;48.628;9.058;2024-03-22T02:52:07;4.50;99.90
7411;DHT22;3747;48.628;9.058;2024-03-22T02:54:33;4.60;99.90
7411;DHT22;3747;48.628;9.058;2024-03-22T02:56:59;4.60;99.90
7411;DHT22;3747;48.628;9.058;2024-03-22T02:59:28;4.70;99.90
7411;DHT22;3747;48.628;9.058;2024-03-22T03:01:54;4.80;99.90
7411;DHT22;3747;48.628;9.058;2024-03-22T03:04:20;4.90;99.90
7411;DHT22;3747;48.628;9.058;2024-03-22T03:06:46;4.90;99.90
7411;DHT22;3747;48.628;9.058;2024-03-22T03:09:13;5.00;99.90
7411;DHT22;3747;48.628;9.058;2024-03-22T03:11:39;5.10;99.90
7411;DHT22;3747;48.628;9.058;2024-03-22T03:14:06;5.20;99.90
7411;DHT22;3747;48.628;9.058;2024-03-22T03:16:33;5.40;99.90
7411;DHT22;3747;48.628;9.058;2024-03-22T03:19:00;5.50;99.90
7411;DHT22;3747;48.628;9.058;2024-03-22T03:21:27;5.70;99.90
7411;DHT22;3747;48.628;9.058;2024-03-22T03:23:52;5.70;99.90
7411;DHT22;3747;48.628;9.058;2024-03-22T03:26:19;5.80;99.90
7411;DHT22;3747;48.628;9.058;2024-03-22T03:28:45;5.90;99.90
7411;DHT22;3747;48.628;9.058;2024-03-22T03:31:11;5.90;99.90
7411;DHT22;3747;48.628;9.058;2024-03-22T03:33:38;5.90;99.90
7411;DHT22;3747;48.628;9.058;2024-03-22T03:36:05;5.90;99.90
7411;DHT22;3747;48.628;9.058;2024-03-22T03:38:31;5.80;99.90
7411;DHT22;3747;48.628;9.058;2024-03-22T03:40:58;5.90;99.90
7411;DHT22;3747;48.628;9.058;2024-03-22T03:43:23;5.90;99.90
7411;DHT22;3747;48.628;9.058;2024-03-22T03:45:50;5.90;99.90
7411;DHT22;3747;48.628;9.058;2024-03-22T03:48:16;6.00;99.90
7411;DHT22;3747;48.628;9.058;2024-03-22T03:50:52;6.20;99.90
7411;DHT22;3747;48.628;9.058;2024-03-22T03:53:18;6.30;99.90
7411;DHT22;3747;48.628;9.058;2024-03-22T03:55:44;6.30;99.90
7411;DHT22;3747;48.628;9.058;2024-03-22T03:58:10;6.40;99.90
7411;DHT22;3747;48.628;9.058;2024-03-22T04:00:37;6.50;99.90
7411;DHT22;3747;48.628;9.058;2024-03-22T04:03:03;6.60;99.90
7411;DHT22;3747;48.628;9.058;2024-03-22T04:05:30;6.60;99.90
7411;DHT22;3747;48.628;9.058;2024-03-22T04:07:57;6.60;99.90
7411;DHT22;3747;48.628;9.058;2024-03-22T04:10:23;6.60;99.90
7411;DHT22;3747;48.628;9.058;2024-03-22T04:12:49;6.60;99.90
7411;DHT22;3747;48.628;9.058;2024-03-22T04:15:16;6.60;99.90
7411;DHT22;3747;48.628;9.058;2024-03-22T04:17:41;6.70;99.90
7411;DHT22;3747;48.628;9.058;2024-03-22T04:20:09;6.70;99.90
7411;DHT22;3747;48.628;9.058;2024-03-22T04:22:36;6.80;99.90
7411;DHT22;3747;48.628;9.058;2024-03-22T04:25:05;6.80;99.90
7411;DHT22;3747;48.628;9.058;2024-03-22T04:27:31;6.80;99.90
7411;DHT22;3747;48.628;9.058;2024-03-22T04:29:58;6.90;99.90
7411;DHT22;3747;48.628;9.058;2024-03-22T04:32:24;6.90;99.90
7411;DHT22;3747;48.628;9.058;2024-03-22T04:34:50;6.90;99.90
7411;DHT22;3747;48.628;9.058;2024-03-22T04:37:16;7.00;99.90
7411;DHT22;3747;48.628;9.058;2024-03-22T04:39:46;7.00;99.90
7411;DHT22;3747;48.628;9.058;2024-03-22T04:42:14;6.90;99.90
7411;DHT22;3747;48.628;9.058;2024-03-22T04:44:41;6.90;99.90
7411;DHT22;3747;48.628;9.058;2024-03-22T04:47:08;6.80;99.90
7411;DHT22;3747;48.628;9.058;2024-03-22T04:49:33;6.90;99.90
7411;DHT22;3747;48.628;9.058;2024-03-22T04:52:00;6.90;99.90
7411;DHT22;3747;48.628;9.058;2024-03-22T04:54:26;6.70;99.90
7411;DHT22;3747;48.628;9.058;2024-03-22T04:56:52;6.70;99.90
7411;DHT22;3747;48.628;9.058;2024-03-22T04:59:20;6.70;99.90
7411;DHT22;3747;48.628;9.058;2024-03-22T05:01:46;6.80;99.90
7411;DHT22;3747;48.628;9.058;2024-03-22T05:04:13;6.90;99.90
7411;DHT22;3747;48.628;9.058;2024-03-22T05:06:39;7.00;99.90
7411;DHT22;3747;48.628;9.058;2024-03-22T05:09:05;7.00;99.90
7411;DHT22;3747;48.628;9.058;2024-03-22T05:11:31;6.90;99.90
7411;DHT22;3747;48.628;9.058;2024-03-22T05:13:58;6.80;99.90
7411;DHT22;3747;48.628;9.058;2024-03-22T05:16:25;6.80;99.90
7411;DHT22;3747;48.628;9.058;2024-03-22T05:18:51;6.70;99.90
7411;DHT22;3747;48.628;9.058;2024-03-22T05:21:17;6.80;99.90
7411;DHT22;3747;48.628;9.058;2024-03-22T05:23:44;6.80;99.90
7411;DHT22;3747;48.628;9.058;2024-03-22T05:26:09;6.80;99.90
7411;DHT22;3747;48.628;9.058;2024-03-22T05:28:36;6.80;99.90
7411;DHT22;3747;48.628;9.058;2024-03-22T05:31:02;6.80;99.90
7411;DHT22;3747;48.628;9.058;2024-03-22T05:33:30;6.90;99.90
7411;DHT22;3747;48.628;9.058;2024-03-22T05:35:55;6.80;99.90
7411;DHT22;3747;48.628;9.058;2024-03-22T05:38:22;6.60;99.90
7411;DHT22;3747;48.628;9.058;2024-03-22T05:40:48;6.50;99.90
7411;DHT22;3747;48.628;9.058;2024-03-22T05:43:14;6.50;99.90
7411;DHT22;3747;48.628;9.058;2024-03-22T05:45:40;6.50;99.90
7411;DHT22;3747;48.628;9.058;2024-03-22T05:48:07;6.50;99.90
7411;DHT22;3747;48.628;9.058;2024-03-22T05:50:34;6.40;99.90
7411;DHT22;3747;48.628;9.058;2024-03-22T05:53:01;6.30;99.90
7411;DHT22;3747;48.628;9.058;2024-03-22T05:55:26;6.30;99.90
7411;DHT22;3747;48.628;9.058;2024-03-22T05:57:56;6.20;99.90
7411;DHT22;3747;48.628;9.058;2024-03-22T06:00:22;6.20;99.90
7411;DHT22;3747;48.628;9.058;2024-03-22T06:02:49;6.20;99.90
7411;DHT22;3747;48.628;9.058;2024-03-22T06:05:14;6.30;99.90
7411;DHT22;3747;48.628;9.058;2024-03-22T06:07:44;6.30;99.90
7411;DHT22;3747;48.628;9.058;2024-03-22T06:10:11;6.30;99.90
7411;DHT22;3747;48.628;9.058;2024-03-22T06:12:38;6.40;99.90
7411;DHT22;3747;48.628;9.058;2024-03-22T06:15:04;6.60;99.90
7411;DHT22;3747;48.628;9.058;2024-03-22T06:17:32;6.80;99.90
7411;DHT22;3747;48.628;9.058;2024-03-22T06:19:58;6.90;99.90
7411;DHT22;3747;48.628;9.058;2024-03-22T06:22:31;6.90;99.90
7411;DHT22;3747;48.628;9.058;2024-03-22T06:24:58;6.90;99.90
7411;DHT22;3747;48.628;9.058;2024-03-22T06:27:25;7.00;99.90
7411;DHT22;3747;48.628;9.058;2024-03-22T06:29:50;7.10;99.90
7411;DHT22;3747;48.628;9.058;2024-03-22T06:32:17;7.20;99.90
7411;DHT22;3747;48.628;9.058;2024-03-22T06:34:43;7.30;99.90
7411;DHT22;3747;48.628;9.058;2024-03-22T06:37:09;7.40;99.90
7411;DHT22;3747;48.628;9.058;2024-03-22T06:39:35;7.40;99.90
7411;DHT22;3747;48.628;9.058;2024-03-22T06:42:04;7.40;99.90
7411;DHT22;3747;48.628;9.058;2024-03-22T06:44:29;7.60;99.90
7411;DHT22;3747;48.628;9.058;2024-03-22T06:46:57;7.70;99.90
7411;DHT22;3747;48.628;9.058;2024-03-22T06:49:22;7.80;99.90
7411;DHT22;3747;48.628;9.058;2024-03-22T06:51:49;7.90;99.90
7411;DHT22;3747;48.628;9.058;2024-03-22T06:54:15;8.00;99.90
7411;DHT22;3747;48.628;9.058;2024-03-22T06:56:42;8.20;99.90
7411;DHT22;3747;48.628;9.058;2024-03-22T06:59:09;8.30;99.90
7411;DHT22;3747;48.628;9.058;2024-03-22T07:01:35;8.40;99.90
7411;DHT22;3747;48.628;9.058;2024-03-22T07:04:01;8.60;99.90
7411;DHT22;3747;48.628;9.058;2024-03-22T07:06:28;8.80;99.90
7411;DHT22;3747;48.628;9.058;2024-03-22T07:08:53;8.90;99.90
7411;DHT22;3747;48.628;9.058;2024-03-22T07:11:21;9.20;99.90
7411;DHT22;3747;48.628;9.058;2024-03-22T07:13:47;9.30;99.90
7411;DHT22;3747;48.628;9.058;2024-03-22T07:16:15;9.40;99.90
7411;DHT22;3747;48.628;9.058;2024-03-22T07:18:41;9.60;99.90
7411;DHT22;3747;48.628;9.058;2024-03-22T07:21:08;9.70;99.90
7411;DHT22;3747;48.628;9.058;2024-03-22T07:23:34;10.10;99.90
7411;DHT22;3747;48.628;9.058;2024-03-22T07:26:00;10.60;99.90
7411;DHT22;3747;48.628;9.058;2024-03-22T07:28:26;11.40;99.90
7411;DHT22;3747;48.628;9.058;2024-03-22T07:30:53;12.10;99.90
7411;DHT22;3747;48.628;9.058;2024-03-22T07:33:21;12.70;99.90
7411;DHT22;3747;48.628;9.058;2024-03-22T07:35:48;13.10;99.90
7411;DHT22;3747;48.628;9.058;2024-03-22T07:38:14;13.10;99.90
7411;DHT22;3747;48.628;9.058;2024-03-22T07:40:41;13.40;99.90
7411;DHT22;3747;48.628;9.058;2024-03-22T07:43:06;13.90;99.90
7411;DHT22;3747;48.628;9.058;2024-03-22T07:45:34;13.60;99.90
7411;DHT22;3747;48.628;9.058;2024-03-22T07:48:00;13.80;99.90
7411;DHT22;3747;48.628;9.058;2024-03-22T07:50:28;14.30;99.90
7411;DHT22;3747;48.628;9.058;2024-03-22T07:52:54;13.90;99.90
7411;DHT22;3747;48.628;9.058;2024-03-22T07:55:22;14.20;99.90
7411;DHT22;3747;48.628;9.058;2024-03-22T07:57:47;14.50;99.90
7411;DHT22;3747;48.628;9.058;2024-03-22T08:00:14;14.90;99.90
7411;DHT22;3747;48.628;9.058;2024-03-22T08:02:41;15.10;99.90
7411;DHT22;3747;48.628;9.058;2024-03-22T08:05:08;15.20;99.90
7411;DHT22;3747;48.628;9.058;2024-03-22T08:07:35;15.30;99.90
7411;DHT22;3747;48.628;9.058;2024-03-22T08:10:02;15.80;99.90
7411;DHT22;3747;48.628;9.058;2024-03-22T08:12:29;15.60;99.90
7411;DHT22;3747;48.628;9.058;2024-03-22T08:14:56;15.80;99.90
7411;DHT22;3747;48.628;9.058;2024-03-22T08:17:24;16.10;99.90
7411;DHT22;3747;48.628;9.058;2024-03-22T08:20:13;16.20;99.90
7411;DHT22;3747;48.628;9.058;2024-03-22T08:22:40;16.10;99.90
7411;DHT22;3747;48.628;9.058;2024-03-22T08:25:07;16.00;99.90
7411;DHT22;3747;48.628;9.058;2024-03-22T08:27:51;16.10;99.90
7411;DHT22;3747;48.628;9.058;2024-03-22T08:30:20;16.50;99.90
7411;DHT22;3747;48.628;9.058;2024-03-22T08:32:46;16.90;99.90
7411;DHT22;3747;48.628;9.058;2024-03-22T08:35:13;17.30;99.90
7411;DHT22;3747;48.628;9.058;2024-03-22T08:37:40;17.60;99.90
7411;DHT22;3747;48.628;9.058;2024-03-22T08:40:08;17.90;99.90
7411;DHT22;3747;48.628;9.058;2024-03-22T08:42:33;18.10;99.90
7411;DHT22;3747;48.628;9.058;2024-03-22T08:45:00;18.30;99.90
7411;DHT22;3747;48.628;9.058;2024-03-22T08:47:26;18.20;99.90
7411;DHT22;3747;48.628;9.058;2024-03-22T08:49:52;18.10;99.90
7411;DHT22;3747;48.628;9.058;2024-03-22T08:52:18;18.10;99.90
7411;DHT22;3747;48.628;9.058;2024-03-22T08:54:46;18.30;99.90
7411;DHT22;3747;48.628;9.058;2024-03-22T08:57:12;18.50;99.90
7411;DHT22;3747;48.628;9.058;2024-03-22T08:59:38;18.50;99.90
7411;DHT22;3747;48.628;9.058;2024-03-22T09:02:04;18.50;99.90
7411;DHT22;3747;48.628;9.058;2024-03-22T09:04:31;18.30;99.90
7411;DHT22;3747;48.628;9.058;2024-03-22T09:06:57;18.30;99.90
7411;DHT22;3747;48.628;9.058;2024-03-22T09:09:24;18.20;99.90
7411;DHT22;3747;48.628;9.058;2024-03-22T09:11:52;18.50;99.90
7411;DHT22;3747;48.628;9.058;2024-03-22T09:14:27;18.40;99.90
7411;DHT22;3747;48.628;9.058;2024-03-22T09:16:54;18.80;99.90
7411;DHT22;3747;48.628;9.058;2024-03-22T09:19:19;18.70;99.90
7411;DHT22;3747;48.628;9.058;2024-03-22T09:21:47;18.20;99.90
7411;DHT22;3747;48.628;9.058;2024-03-22T09:24:46;17.90;99.90
7411;DHT22;3747;48.628;9.058;2024-03-22T09:27:14;17.90;99.90
7411;DHT22;3747;48.628;9.058;2024-03-22T09:29:40;18.40;99.90
7411;DHT22;3747;48.628;9.058;2024-03-22T09:32:09;19.00;99.90
7411;DHT22;3747;48.628;9.058;2024-03-22T09:34:35;19.40;99.90
7411;DHT22;3747;48.628;9.058;2024-03-22T09:37:03;19.60;99.90
7411;DHT22;3747;48.628;9.058;2024-03-22T09:39:28;19.20;99.90
7411;DHT22;3747;48.628;9.058;2024-03-22T09:41:57;18.80;99.90
7411;DHT22;3747;48.628;9.058;2024-03-22T09:44:27;18.40;99.90
7411;DHT22;3747;48.628;9.058;2024-03-22T09:46:53;18.40;99.90
7411;DHT22;3747;48.628;9.058;2024-03-22T09:49:20;18.30;99.90
7411;DHT22;3747;48.628;9.058;2024-03-22T09:51:48;18.20;99.90
7411;DHT22;3747;48.628;9.058;2024-03-22T09:54:17;18.00;99.90
7411;DHT22;3747;48.628;9.058;2024-03-22T09:56:46;17.60;99.90
7411;DHT22;3747;48.628;9.058;2024-03-22T09:59:13;17.10;99.90
7411;DHT22;3747;48.628;9.058;2024-03-22T10:01:41;17.10;99.90
7411;DHT22;3747;48.628;9.058;2024-03-22T10:04:15;17.40;99.90
7411;DHT22;3747;48.628;9.058;2024-03-22T10:06:42;18.00;99.90
7411;DHT22;3747;48.628;9.058;2024-03-22T10:09:08;18.40;99.90
7411;DHT22;3747;48.628;9.058;2024-03-22T10:11:35;19.00;99.90
7411;DHT22;3747;48.628;9.058;2024-03-22T10:14:00;19.40;99.90
7411;DHT22;3747;48.628;9.058;2024-03-22T10:16:33;19.10;99.90
7411;DHT22;3747;48.628;9.058;2024-03-22T10:19:01;18.40;99.90
7411;DHT22;3747;48.628;9.058;2024-03-22T10:21:27;18.10;99.90
7411;DHT22;3747;48.628;9.058;2024-03-22T10:23:54;17.90;99.90
7411;DHT22;3747;48.628;9.058;2024-03-22T10:26:21;18.00;99.90
7411;DHT22;3747;48.628;9.058;2024-03-22T10:28:47;17.90;99.90
7411;DHT22;3747;48.628;9.058;2024-03-22T10:31:14;18.10;99.90
7411;DHT22;3747;48.628;9.058;2024-03-22T10:33:40;18.40;99.90
7411;DHT22;3747;48.628;9.058;2024-03-22T10:36:10;18.40;99.90
7411;DHT22;3747;48.628;9.058;2024-03-22T10:38:38;18.60;99.90
7411;DHT22;3747;48.628;9.058;2024-03-22T10:41:04;18.80;99.90
7411;DHT22;3747;48.628;9.058;2024-03-22T10:43:30;19.20;99.90
7411;DHT22;3747;48.628;9.058;2024-03-22T10:46:01;19.30;99.90
7411;DHT22;3747;48.628;9.058;2024-03-22T10:48:30;19.50;99.90
7411;DHT22;3747;48.628;9.058;2024-03-22T10:50:59;19.40;99.90
7411;DHT22;3747;48.628;9.058;2024-03-22T10:53:28;19.40;99.90
7411;DHT22;3747;48.628;9.058;2024-03-22T10:55:56;19.00;99.90
7411;DHT22;3747;48.628;9.058;2024-03-22T10:58:25;18.60;99.90
7411;DHT22;3747;48.628;9.058;2024-03-22T11:00:53;18.60;99.90
7411;DHT22;3747;48.628;9.058;2024-03-22T11:03:19;18.50;99.90
7411;DHT22;3747;48.628;9.058;2024-03-22T11:05:46;18.50;99.90
7411;DHT22;3747;48.628;9.058;2024-03-22T11:08:12;18.60;99.90
7411;DHT22;3747;48.628;9.058;2024-03-22T11:10:41;18.70;99.90
7411;DHT22;3747;48.628;9.058;2024-03-22T11:13:08;18.70;99.90
7411;DHT22;3747;48.628;9.058;2024-03-22T11:15:35;18.50;99.90
7411;DHT22;3747;48.628;9.058;2024-03-22T11:18:01;18.10;99.90
7411;DHT22;3747;48.628;9.058;2024-03-22T11:20:28;17.90;99.90
7411;DHT22;3747;48.628;9.058;2024-03-22T11:23:01;18.00;99.90
7411;DHT22;3747;48.628;9.058;2024-03-22T11:25:27;18.60;99.90
7411;DHT22;3747;48.628;9.058;2024-03-22T11:27:55;19.20;99.90
7411;DHT22;3747;48.628;9.058;2024-03-22T11:30:24;19.50;99.90
7411;DHT22;3747;48.628;9.058;2024-03-22T11:32:50;20.10;99.90
7411;DHT22;3747;48.628;9.058;2024-03-22T11:35:30;20.10;99.90
7411;DHT22;3747;48.628;9.058;2024-03-22T11:38:32;20.50;99.90
7411;DHT22;3747;48.628;9.058;2024-03-22T11:41:03;20.90;99.90
7411;DHT22;3747;48.628;9.058;2024-03-22T11:43:35;21.50;99.90
7411;DHT22;3747;48.628;9.058;2024-03-22T11:46:02;21.20;99.70
7411;DHT22;3747;48.628;9.058;2024-03-22T11:48:28;21.80;99.90
7411;DHT22;3747;48.628;9.058;2024-03-22T11:50:55;22.40;99.30
7411;DHT22;3747;48.628;9.058;2024-03-22T11:53:21;22.70;99.30
7411;DHT22;3747;48.628;9.058;2024-03-22T11:55:49;22.50;97.80
7411;DHT22;3747;48.628;9.058;2024-03-22T11:58:15;22.60;98.80
7411;DHT22;3747;48.628;9.058;2024-03-22T12:00:43;22.90;98.60
7411;DHT22;3747;48.628;9.058;2024-03-22T12:03:09;23.20;98.30
7411;DHT22;3747;48.628;9.058;2024-03-22T12:05:57;23.20;98.00
7411;DHT22;3747;48.628;9.058;2024-03-22T12:08:23;23.40;97.40
7411;DHT22;3747;48.628;9.058;2024-03-22T12:10:49;23.10;98.10
7411;DHT22;3747;48.628;9.058;2024-03-22T12:13:15;23.70;96.80
7411;DHT22;3747;48.628;9.058;2024-03-22T12:15:43;23.80;96.40
7411;DHT22;3747;48.628;9.058;2024-03-22T12:18:09;22.60;95.20
7411;DHT22;3747;48.628;9.058;2024-03-22T12:20:35;22.40;97.20
7411;DHT22;3747;48.628;9.058;2024-03-22T12:23:01;21.80;97.00
7411;DHT22;3747;48.628;9.058;2024-03-22T12:25:28;21.20;98.90
7411;DHT22;3747;48.628;9.058;2024-03-22T12:27:54;20.60;97.20
7411;DHT22;3747;48.628;9.058;2024-03-22T12:30:20;20.80;97.30
7411;DHT22;3747;48.628;9.058;2024-03-22T12:32:48;21.70;98.70
7411;DHT22;3747;48.628;9.058;2024-03-22T12:35:15;22.20;96.30
7411;DHT22;3747;48.628;9.058;2024-03-22T12:37:41;22.30;96.40
7411;DHT22;3747;48.628;9.058;2024-03-22T12:40:09;22.50;96.70
7411;DHT22;3747;48.628;9.058;2024-03-22T12:42:35;22.20;98.40
7411;DHT22;3747;48.628;9.058;2024-03-22T12:45:02;22.10;97.30
7411;DHT22;3747;48.628;9.058;2024-03-22T12:47:28;22.10;96.10
7411;DHT22;3747;48.628;9.058;2024-03-22T12:49:56;22.50;96.60
7411;DHT22;3747;48.628;9.058;2024-03-22T12:52:22;22.30;96.10
7411;DHT22;3747;48.628;9.058;2024-03-22T12:54:48;22.40;95.50
7411;DHT22;3747;48.628;9.058;2024-03-22T12:57:14;22.20;94.60
7411;DHT22;3747;48.628;9.058;2024-03-22T12:59:41;21.70;94.30
7411;DHT22;3747;48.628;9.058;2024-03-22T13:02:07;21.60;95.40
7411;DHT22;3747;48.628;9.058;2024-03-22T13:04:34;21.60;95.70
7411;DHT22;3747;48.628;9.058;2024-03-22T13:07:01;21.40;95.10
7411;DHT22;3747;48.628;9.058;2024-03-22T13:09:28;20.80;95.10
7411;DHT22;3747;48.628;9.058;2024-03-22T13:11:53;21.40;94.10
7411;DHT22;3747;48.628;9.058;2024-03-22T13:14:20;21.70;94.00
7411;DHT22;3747;48.628;9.058;2024-03-22T13:16:46;22.10;94.50
7411;DHT22;3747;48.628;9.058;2024-03-22T13:19:13;22.30;94.80
7411;DHT22;3747;48.628;9.058;2024-03-22T13:21:40;22.60;94.30
7411;DHT22;3747;48.628;9.058;2024-03-22T13:24:11;23.00;94.80
7411;DHT22;3747;48.628;9.058;2024-03-22T13:26:36;23.10;93.80
7411;DHT22;3747;48.628;9.058;2024-03-22T13:29:03;24.00;92.60
7411;DHT22;3747;48.628;9.058;2024-03-22T13:31:29;24.70;91.90
7411;DHT22;3747;48.628;9.058;2024-03-22T13:33:56;25.50;90.90
7411;DHT22;3747;48.628;9.058;2024-03-22T13:36:21;25.70;91.80
7411;DHT22;3747;48.628;9.058;2024-03-22T13:38:51;25.60;85.00
7411;DHT22;3747;48.628;9.058;2024-03-22T13:41:18;24.40;88.20
7411;DHT22;3747;48.628;9.058;2024-03-22T13:43:44;23.30;90.10
7411;DHT22;3747;48.628;9.058;2024-03-22T13:46:10;22.60;90.70
7411;DHT22;3747;48.628;9.058;2024-03-22T13:48:43;21.90;88.30
7411;DHT22;3747;48.628;9.058;2024-03-22T13:51:09;21.40;90.20
7411;DHT22;3747;48.628;9.058;2024-03-22T13:56:46;20.90;92.50
7411;DHT22;3747;48.628;9.058;2024-03-22T13:59:13;21.00;90.80
7411;DHT22;3747;48.628;9.058;2024-03-22T14:01:40;21.10;91.50
7411;DHT22;3747;48.628;9.058;2024-03-22T14:04:07;21.10;91.10
7411;DHT22;3747;48.628;9.058;2024-03-22T14:06:37;21.10;92.10
7411;DHT22;3747;48.628;9.058;2024-03-22T14:09:18;21.10;91.60
7411;DHT22;3747;48.628;9.058;2024-03-22T14:11:47;21.90;91.20
7411;DHT22;3747;48.628;9.058;2024-03-22T14:14:14;23.20;89.60
7411;DHT22;3747;48.628;9.058;2024-03-22T14:16:40;24.20;89.20
7411;DHT22;3747;48.628;9.058;2024-03-22T14:19:27;24.50;90.00
7411;DHT22;3747;48.628;9.058;2024-03-22T14:21:53;25.60;84.00
7411;DHT22;3747;48.628;9.058;2024-03-22T14:24:19;26.20;80.40
7411;DHT22;3747;48.628;9.058;2024-03-22T14:26:47;26.00;78.00
7411;DHT22;3747;48.628;9.058;2024-03-22T14:29:13;24.70;79.10
7411;DHT22;3747;48.628;9.058;2024-03-22T14:31:40;24.00;79.10
7411;DHT22;3747;48.628;9.058;2024-03-22T14:34:08;24.00;81.70
7411;DHT22;3747;48.628;9.058;2024-03-22T14:36:40;24.10;76.50
7411;DHT22;3747;48.628;9.058;2024-03-22T14:39:07;23.40;75.30
7411;DHT22;3747;48.628;9.058;2024-03-22T14:41:33;22.80;75.50
7411;DHT22;3747;48.628;9.058;2024-03-22T14:44:00;22.20;79.30
7411;DHT22;3747;48.628;9.058;2024-03-22T14:46:27;21.80;76.70
7411;DHT22;3747;48.628;9.058;2024-03-22T14:48:55;21.40;76.20
7411;DHT22;3747;48.628;9.058;2024-03-22T14:51:22;21.10;75.10
7411;DHT22;3747;48.628;9.058;2024-03-22T14:53:54;20.50;76.80
7411;DHT22;3747;48.628;9.058;2024-03-22T14:56:27;20.40;78.50
7411;DHT22;3747;48.628;9.058;2024-03-22T14:58:53;20.40;75.50
7411;DHT22;3747;48.628;9.058;2024-03-22T15:01:25;21.20;74.80
7411;DHT22;3747;48.628;9.058;2024-03-22T15:03:52;21.10;71.80
7411;DHT22;3747;48.628;9.058;2024-03-22T15:06:18;20.80;75.30
7411;DHT22;3747;48.628;9.058;2024-03-22T15:08:45;20.40;76.40
7411;DHT22;3747;48.628;9.058;2024-03-22T15:11:13;19.90;71.80
7411;DHT22;3747;48.628;9.058;2024-03-22T15:13:39;19.60;76.70
7411;DHT22;3747;48.628;9.058;2024-03-22T15:16:06;19.50;77.30
7411;DHT22;3747;48.628;9.058;2024-03-22T15:18:37;19.50;82.00
7411;DHT22;3747;48.628;9.058;2024-03-22T15:21:09;19.40;81.20
7411;DHT22;3747;48.628;9.058;2024-03-22T15:23:35;19.10;80.50
7411;DHT22;3747;48.628;9.058;2024-03-22T15:26:03;18.80;79.50
7411;DHT22;3747;48.628;9.058;2024-03-22T15:28:29;18.70;81.90
7411;DHT22;3747;48.628;9.058;2024-03-22T15:30:55;18.50;80.10
7411;DHT22;3747;48.628;9.058;2024-03-22T15:33:21;18.30;83.70
7411;DHT22;3747;48.628;9.058;2024-03-22T15:35:49;18.20;84.10
7411;DHT22;3747;48.628;9.058;2024-03-22T15:38:15;18.10;87.70
7411;DHT22;3747;48.628;9.058;2024-03-22T15:40:42;18.10;83.40
7411;DHT22;3747;48.628;9.058;2024-03-22T15:43:08;17.90;78.80
7411;DHT22;3747;48.628;9.058;2024-03-22T15:45:36;17.70;78.30
7411;DHT22;3747;48.628;9.058;2024-03-22T15:48:02;17.60;78.30
7411;DHT22;3747;48.628;9.058;2024-03-22T15:53:32;17.60;81.00
7411;DHT22;3747;48.628;9.058;2024-03-22T15:55:57;17.40;79.30
7411;DHT22;3747;48.628;9.058;2024-03-22T15:58:24;17.30;80.20
7411;DHT22;3747;48.628;9.058;2024-03-22T16:01:00;17.20;79.00
7411;DHT22;3747;48.628;9.058;2024-03-22T16:03:28;17.00;77.70
7411;DHT22;3747;48.628;9.058;2024-03-22T16:05:54;16.90;77.10
7411;DHT22;3747;48.628;9.058;2024-03-22T16:08:20;16.80;79.10
7411;DHT22;3747;48.628;9.058;2024-03-22T16:10:48;16.70;79.90
7411;DHT22;3747;48.628;9.058;2024-03-22T16:13:14;16.60;81.00
7411;DHT22;3747;48.628;9.058;2024-03-22T16:15:40;16.60;82.90
7411;DHT22;3747;48.628;9.058;2024-03-22T16:18:11;16.50;83.20